createdAt,value
2024-04-17T00:01:18.481Z,67.10
2024-04-17T00:03:46.068Z,67.10
2024-04-17T00:06:16.818Z,67.10
2024-04-17T00:08:44.141Z,67.20
2024-04-17T00:11:16.786Z,67.20
2024-04-17T00:13:44.404Z,67.20
2024-04-17T00:16:14.380Z,67.20
2024-04-17T00:18:41.749Z,67.20
2024-04-17T00:21:11.744Z,67.20
2024-04-17T00:23:39.256Z,67.20
2024-04-17T00:26:09.152Z,67.20
2024-04-17T00:28:39.178Z,67.20
2024-04-17T00:31:09.377Z,67.20
2024-04-17T00:33:36.695Z,67.30
2024-04-17T00:36:07.071Z,67.30
2024-04-17T00:38:34.374Z,67.30
2024-04-17T00:41:04.246Z,67.30
2024-04-17T00:43:31.607Z,67.30
2024-04-17T00:46:04.224Z,67.30
2024-04-17T00:48:31.578Z,67.30
2024-04-17T00:51:01.827Z,67.30
2024-04-17T00:53:31.004Z,67.30
2024-04-17T00:56:01.583Z,67.30
2024-04-17T00:58:29.171Z,67.30
2024-04-17T01:00:59.223Z,67.40
2024-04-17T01:03:30.020Z,67.30
2024-04-17T01:05:59.918Z,67.30
2024-04-17T01:08:27.204Z,67.30
2024-04-17T01:11:03.705Z,67.30
2024-04-17T01:13:31.524Z,67.40
2024-04-17T01:16:01.490Z,67.30
2024-04-17T01:18:32.129Z,67.30
2024-04-17T01:21:02.439Z,67.40
2024-04-17T01:23:29.742Z,67.40
2024-04-17T01:26:02.635Z,67.40
2024-04-17T01:28:30.017Z,67.40
2024-04-17T01:31:00.028Z,67.40
2024-04-17T01:33:27.363Z,67.40
2024-04-17T01:35:57.318Z,67.50
2024-04-17T01:38:24.752Z,67.40
2024-04-17T01:40:54.757Z,67.40
2024-04-17T01:43:26.080Z,67.50
2024-04-17T01:45:56.354Z,67.50
2024-04-17T01:48:23.933Z,67.50
2024-04-17T01:50:56.017Z,67.50
2024-04-17T01:53:23.357Z,67.50
2024-04-17T01:55:53.586Z,67.50
2024-04-17T01:58:23.596Z,67.50
2024-04-17T02:00:53.648Z,67.50
2024-04-17T02:03:21.238Z,67.50
2024-04-17T02:05:51.306Z,67.50
2024-04-17T02:08:18.593Z,67.50
2024-04-17T02:10:48.686Z,67.50
2024-04-17T02:13:16.038Z,67.50
2024-04-17T02:15:48.526Z,67.60
2024-04-17T02:18:16.026Z,67.50
2024-04-17T02:20:46.107Z,67.60
2024-04-17T02:23:13.425Z,67.60
2024-04-17T02:25:43.548Z,67.60
2024-04-17T02:28:10.886Z,67.60
2024-04-17T02:30:40.835Z,67.60
2024-04-17T02:33:10.737Z,67.60
2024-04-17T02:35:40.689Z,67.60
2024-04-17T02:38:08.045Z,67.60
2024-04-17T02:40:38.127Z,67.70
2024-04-17T02:43:05.637Z,67.70
2024-04-17T02:45:35.782Z,67.70
2024-04-17T02:48:03.348Z,67.70
2024-04-17T02:50:35.964Z,67.70
2024-04-17T02:53:03.407Z,67.70
2024-04-17T02:55:33.335Z,67.80
2024-04-17T02:58:00.778Z,67.70
2024-04-17T03:00:30.927Z,67.70
2024-04-17T03:02:58.327Z,67.70
2024-04-17T03:05:29.414Z,67.80
2024-04-17T03:07:59.493Z,67.70
2024-04-17T03:10:29.474Z,67.70
2024-04-17T03:12:57.433Z,67.70
2024-04-17T03:15:27.439Z,67.70
2024-04-17T03:17:54.819Z,67.80
2024-04-17T03:20:24.870Z,67.80
2024-04-17T03:22:52.379Z,67.80
2024-04-17T03:25:25.147Z,67.70
2024-04-17T03:27:52.525Z,67.70
2024-04-17T03:30:23.171Z,67.70
2024-04-17T03:32:50.591Z,67.70
2024-04-17T03:35:20.834Z,67.70
2024-04-17T03:37:51.044Z,67.70
2024-04-17T03:40:21.225Z,67.70
2024-04-17T03:42:51.194Z,67.80
2024-04-17T03:45:21.315Z,67.70
2024-04-17T03:47:51.452Z,67.70
2024-04-17T03:50:19.052Z,67.70
2024-04-17T03:52:49.016Z,67.80
2024-04-17T03:55:16.486Z,67.80
2024-04-17T03:57:46.441Z,67.80
2024-04-17T04:00:17.463Z,67.80
2024-04-17T04:02:47.565Z,67.80
2024-04-17T04:05:15.179Z,67.80
2024-04-17T04:07:45.243Z,67.80
2024-04-17T04:10:12.571Z,67.80
2024-04-17T04:12:42.448Z,67.80
2024-04-17T04:15:09.663Z,67.80
2024-04-17T04:17:42.355Z,67.80
2024-04-17T04:20:10.143Z,67.80
2024-04-17T04:22:40.082Z,67.80
2024-04-17T04:25:07.890Z,67.80
2024-04-17T04:27:38.242Z,67.80
2024-04-17T04:30:06.833Z,67.80
2024-04-17T04:32:36.855Z,67.90
2024-04-17T04:35:07.556Z,67.90
2024-04-17T04:37:37.610Z,67.80
2024-04-17T04:40:06.025Z,67.90
2024-04-17T04:42:35.948Z,67.90
2024-04-17T04:45:03.239Z,67.90
2024-04-17T04:47:33.331Z,67.90
2024-04-17T04:50:00.897Z,67.90
2024-04-17T04:52:33.501Z,67.90
2024-04-17T04:55:00.989Z,67.90
2024-04-17T04:57:30.955Z,67.80
2024-04-17T04:59:58.287Z,67.90
2024-04-17T05:02:28.297Z,67.90
2024-04-17T05:04:55.549Z,67.90
2024-04-17T05:07:27.176Z,67.90
2024-04-17T05:10:01.876Z,67.90
2024-04-17T05:12:29.219Z,67.90
2024-04-17T05:14:59.158Z,67.90
2024-04-17T05:17:26.637Z,67.90
2024-04-17T05:19:56.747Z,68.00
2024-04-17T05:22:26.821Z,67.90
2024-04-17T05:24:54.208Z,68.00
2024-04-17T05:27:26.780Z,68.00
2024-04-17T05:29:54.121Z,68.00
2024-04-17T05:32:24.211Z,68.00
2024-04-17T05:34:51.712Z,67.90
2024-04-17T05:37:21.681Z,68.00
2024-04-17T05:39:49.020Z,68.00
2024-04-17T05:42:18.997Z,67.90
2024-04-17T05:44:49.038Z,68.00
2024-04-17T05:47:19.115Z,68.00
2024-04-17T05:49:46.653Z,68.00
2024-04-17T05:52:18.286Z,68.00
2024-04-17T05:54:48.540Z,68.00
2024-04-17T05:57:15.900Z,68.00
2024-04-17T05:59:45.789Z,68.00
2024-04-17T06:02:16.022Z,68.00
2024-04-17T06:04:46.496Z,68.00
2024-04-17T06:07:13.862Z,68.00
2024-04-17T06:09:44.101Z,68.10
2024-04-17T06:12:11.512Z,68.10
2024-04-17T06:14:41.553Z,68.10
2024-04-17T06:17:08.897Z,68.10
2024-04-17T06:19:44.049Z,68.10
2024-04-17T06:22:11.480Z,68.10
2024-04-17T06:24:41.464Z,68.10
2024-04-17T06:27:09.027Z,68.70
2024-04-17T06:29:39.009Z,68.10
2024-04-17T06:32:06.883Z,68.10
2024-04-17T06:34:36.922Z,68.10
2024-04-17T06:37:06.959Z,68.20
2024-04-17T06:39:37.579Z,68.20
2024-04-17T06:42:05.461Z,68.20
2024-04-17T06:44:35.998Z,68.30
2024-04-17T06:47:03.783Z,68.30
2024-04-17T06:49:34.008Z,68.40
2024-04-17T06:52:01.409Z,68.30
2024-04-17T06:54:34.128Z,68.30
2024-04-17T06:57:01.541Z,68.30
2024-04-17T06:59:31.853Z,68.40
2024-04-17T07:01:59.248Z,68.30
2024-04-17T07:04:29.303Z,68.30
2024-04-17T07:06:56.741Z,68.30
2024-04-17T07:09:26.922Z,68.30
2024-04-17T07:11:57.277Z,68.30
2024-04-17T07:14:28.468Z,68.30
2024-04-17T07:16:56.197Z,68.30
2024-04-17T07:19:26.565Z,68.30
2024-04-17T07:21:54.467Z,68.30
2024-04-17T07:24:25.254Z,68.30
2024-04-17T07:26:53.054Z,68.30
2024-04-17T07:29:25.587Z,68.30
2024-04-17T07:31:57.293Z,68.30
2024-04-17T07:34:27.364Z,68.00
2024-04-17T07:36:54.680Z,67.50
2024-04-17T07:39:24.659Z,67.50
2024-04-17T07:41:52.148Z,67.70
2024-04-17T07:44:22.197Z,67.80
2024-04-17T07:46:52.110Z,67.80
2024-04-17T07:49:22.241Z,67.80
2024-04-17T07:51:49.687Z,67.80
2024-04-17T07:54:19.701Z,67.90
2024-04-17T07:56:47.093Z,67.90
2024-04-17T07:59:17.067Z,67.90
2024-04-17T08:01:44.401Z,67.80
2024-04-17T08:04:17.040Z,67.80
2024-04-17T08:06:44.488Z,67.80
2024-04-17T08:09:14.701Z,67.70
2024-04-17T08:11:42.961Z,67.80
2024-04-17T08:14:13.425Z,67.80
2024-04-17T08:16:42.933Z,67.80
2024-04-17T08:19:16.513Z,67.70
2024-04-17T08:21:44.270Z,67.80
2024-04-17T08:24:15.197Z,67.70
2024-04-17T08:26:42.679Z,67.70
2024-04-17T08:29:12.583Z,67.60
2024-04-17T08:31:40.055Z,67.60
2024-04-17T08:34:10.050Z,67.60
2024-04-17T08:36:40.680Z,67.60
2024-04-17T08:39:10.725Z,67.60
2024-04-17T08:41:41.928Z,67.60
2024-04-17T08:44:19.019Z,67.50
2024-04-17T08:46:48.050Z,67.50
2024-04-17T08:49:19.448Z,67.40
2024-04-17T08:51:49.930Z,67.40
2024-04-17T08:54:20.487Z,67.40
2024-04-17T08:56:47.930Z,67.30
2024-04-17T08:59:18.168Z,67.30
2024-04-17T09:01:47.537Z,67.40
2024-04-17T09:04:18.925Z,67.40
2024-04-17T09:06:51.622Z,67.40
2024-04-17T09:09:23.004Z,67.40
2024-04-17T09:11:55.528Z,67.30
2024-04-17T09:14:28.433Z,67.30
2024-04-17T09:16:57.054Z,67.30
2024-04-17T09:19:27.084Z,67.30
2024-04-17T09:21:57.386Z,67.90
2024-04-17T09:24:27.378Z,67.30
2024-04-17T09:26:54.748Z,67.20
2024-04-17T09:29:24.735Z,67.20
2024-04-17T09:31:54.804Z,67.20
2024-04-17T09:34:22.688Z,67.20
2024-04-17T09:36:52.996Z,67.20
2024-04-17T09:39:23.045Z,67.20
2024-04-17T09:41:55.616Z,67.10
2024-04-17T09:44:24.928Z,67.10
2024-04-17T09:47:00.793Z,67.10
2024-04-17T09:49:32.377Z,67.10
2024-04-17T09:52:07.195Z,67.10
2024-04-17T09:54:38.641Z,67.10
2024-04-17T09:57:09.950Z,67.00
2024-04-17T09:59:38.506Z,67.10
2024-04-17T10:02:10.047Z,67.00
2024-04-17T10:04:37.659Z,67.00
2024-04-17T10:07:09.847Z,67.00
2024-04-17T10:09:41.621Z,67.00
2024-04-17T10:12:14.945Z,67.10
2024-04-17T10:14:42.342Z,67.10
2024-04-17T10:17:21.578Z,67.10
2024-04-17T10:19:57.961Z,67.00
2024-04-17T10:22:29.584Z,67.10
2024-04-17T10:25:09.793Z,67.00
2024-04-17T10:27:42.015Z,67.00
2024-04-17T10:30:11.630Z,66.90
2024-04-17T10:32:42.643Z,66.80
2024-04-17T10:35:15.559Z,66.70
2024-04-17T10:37:49.223Z,66.60
2024-04-17T10:40:19.601Z,66.60
2024-04-17T10:42:49.674Z,66.60
2024-04-17T10:45:18.365Z,66.60
2024-04-17T10:47:53.869Z,66.70
2024-04-17T10:50:21.721Z,66.70
2024-04-17T10:52:53.727Z,66.60
2024-04-17T10:55:25.135Z,66.60
2024-04-17T10:57:55.215Z,66.60
2024-04-17T11:00:22.554Z,66.60
2024-04-17T11:02:52.416Z,66.60
2024-04-17T11:05:19.756Z,66.60
2024-04-17T11:07:49.974Z,66.60
2024-04-17T11:10:17.870Z,66.50
2024-04-17T11:12:50.883Z,66.50
2024-04-17T11:15:18.355Z,66.50
2024-04-17T11:17:48.496Z,66.50
2024-04-17T11:20:17.403Z,66.50
2024-04-17T11:22:47.506Z,66.50
2024-04-17T11:25:15.820Z,66.50
2024-04-17T11:27:50.700Z,66.50
2024-04-17T11:30:24.274Z,66.50
2024-04-17T11:32:54.504Z,66.50
2024-04-17T11:35:21.936Z,66.40
2024-04-17T11:37:53.096Z,66.40
2024-04-17T11:40:21.932Z,66.40
2024-04-17T11:42:55.183Z,66.40
2024-04-17T11:45:22.562Z,66.10
2024-04-17T11:47:52.666Z,65.90
2024-04-17T11:50:21.030Z,66.00
2024-04-17T11:52:51.284Z,66.00
2024-04-17T11:55:18.554Z,65.90
2024-04-17T11:57:48.540Z,66.00
2024-04-17T12:00:18.585Z,66.00
2024-04-17T12:02:49.938Z,66.00
2024-04-17T12:05:17.375Z,65.90
2024-04-17T12:07:47.486Z,65.90
2024-04-17T12:10:14.905Z,66.00
2024-04-17T12:12:44.854Z,66.00
2024-04-17T12:15:12.456Z,66.00
2024-04-17T12:17:45.204Z,66.00
2024-04-17T12:20:12.877Z,66.10
2024-04-17T12:22:43.028Z,66.70
2024-04-17T12:25:30.837Z,66.10
2024-04-17T12:28:00.944Z,65.90
2024-04-17T12:30:30.912Z,65.60
2024-04-17T12:33:03.554Z,65.40
2024-04-17T12:35:33.494Z,65.30
2024-04-17T12:38:03.559Z,65.30
2024-04-17T12:40:33.615Z,65.00
2024-04-17T12:43:03.672Z,64.90
2024-04-17T12:45:33.680Z,64.90
2024-04-17T12:48:04.098Z,65.00
2024-04-17T12:50:34.050Z,64.90
2024-04-17T12:53:06.410Z,64.70
2024-04-17T12:55:36.540Z,64.60
2024-04-17T12:58:06.602Z,64.40
2024-04-17T13:00:36.652Z,64.40
2024-04-17T13:03:06.814Z,64.30
2024-04-17T13:05:38.031Z,64.40
2024-04-17T13:08:05.972Z,64.50
2024-04-17T13:10:36.040Z,64.60
2024-04-17T13:13:03.493Z,64.50
2024-04-17T13:15:33.616Z,64.50
2024-04-17T13:18:01.084Z,64.50
2024-04-17T13:20:33.928Z,64.50
2024-04-17T13:23:07.826Z,64.50
2024-04-17T13:25:44.741Z,64.50
2024-04-17T13:28:12.081Z,64.40
2024-04-17T13:30:42.050Z,64.30
2024-04-17T13:33:09.504Z,64.20
2024-04-17T13:35:42.266Z,64.20
2024-04-17T13:38:09.697Z,64.10
2024-04-17T13:40:39.838Z,64.20
2024-04-17T13:43:07.196Z,64.20
2024-04-17T13:45:37.164Z,64.10
2024-04-17T13:48:04.758Z,64.00
2024-04-17T13:50:34.848Z,64.00
2024-04-17T13:53:05.702Z,64.00
2024-04-17T13:55:36.469Z,63.90
2024-04-17T13:58:04.849Z,63.90
2024-04-17T14:00:34.984Z,63.90
2024-04-17T14:03:02.434Z,63.90
2024-04-17T14:05:32.572Z,63.90
2024-04-17T14:07:59.941Z,63.80
2024-04-17T14:10:33.476Z,63.80
2024-04-17T14:13:00.863Z,63.90
2024-04-17T14:15:31.381Z,63.80
2024-04-17T14:17:58.772Z,63.70
2024-04-17T14:20:28.845Z,63.60
2024-04-17T14:22:56.125Z,63.40
2024-04-17T14:25:26.040Z,63.30
2024-04-17T14:27:56.035Z,63.10
2024-04-17T14:30:26.120Z,63.30
2024-04-17T14:32:53.686Z,63.30
2024-04-17T14:35:25.003Z,63.40
2024-04-17T14:37:52.375Z,63.40
2024-04-17T14:40:23.123Z,63.40
2024-04-17T14:42:50.577Z,63.20
2024-04-17T14:45:23.167Z,63.10
2024-04-17T14:47:50.600Z,63.10
2024-04-17T14:50:21.155Z,63.10
2024-04-17T14:52:49.313Z,63.10
2024-04-17T14:55:19.486Z,63.10
2024-04-17T14:57:46.892Z,63.00
2024-04-17T15:00:17.570Z,63.00
2024-04-17T15:02:47.602Z,63.00
2024-04-17T15:05:17.719Z,62.90
2024-04-17T15:07:45.034Z,63.00
2024-04-17T15:10:16.594Z,63.00
2024-04-17T15:12:44.074Z,62.90
2024-04-17T15:15:14.506Z,63.00
2024-04-17T15:17:42.595Z,63.00
2024-04-17T15:20:15.367Z,63.00
2024-04-17T15:22:42.749Z,63.00
2024-04-17T15:25:12.806Z,62.90
2024-04-17T15:27:40.374Z,63.00
2024-04-17T15:30:14.457Z,63.00
2024-04-17T15:32:41.848Z,63.00
2024-04-17T15:35:14.552Z,62.90
2024-04-17T15:37:41.904Z,62.90
2024-04-17T15:40:12.627Z,62.90
2024-04-17T15:42:40.075Z,62.80
2024-04-17T15:45:10.382Z,62.90
2024-04-17T15:47:39.395Z,62.90
2024-04-17T15:50:10.570Z,62.90
2024-04-17T15:52:40.501Z,62.90
2024-04-17T15:55:10.912Z,62.90
2024-04-17T15:57:38.385Z,62.90
2024-04-17T16:00:09.592Z,62.90
2024-04-17T16:02:38.337Z,62.90
2024-04-17T16:05:08.756Z,63.00
2024-04-17T16:07:36.117Z,63.00
2024-04-17T16:10:09.047Z,63.00
2024-04-17T16:12:36.435Z,63.00
2024-04-17T16:15:07.280Z,62.90
2024-04-17T16:17:34.817Z,63.00
2024-04-17T16:20:06.162Z,63.00
2024-04-17T16:22:33.439Z,63.00
2024-04-17T16:25:03.520Z,62.90
2024-04-17T16:27:33.641Z,62.90
2024-04-17T16:30:03.709Z,62.90
2024-04-17T16:32:31.160Z,62.90
2024-04-17T16:35:01.235Z,62.90
2024-04-17T16:37:29.971Z,63.00
2024-04-17T16:40:00.045Z,63.00
2024-04-17T16:42:27.597Z,63.00
2024-04-17T16:45:00.755Z,63.00
2024-04-17T16:47:28.118Z,63.00
2024-04-17T16:49:58.425Z,63.00
2024-04-17T16:52:27.783Z,63.10
2024-04-17T16:54:59.890Z,63.00
2024-04-17T16:57:28.312Z,63.10
2024-04-17T17:00:00.991Z,63.10
2024-04-17T17:02:28.554Z,63.10
2024-04-17T17:04:59.317Z,63.10
2024-04-17T17:07:26.766Z,63.10
2024-04-17T17:12:31.014Z,63.20
2024-04-17T17:15:00.994Z,63.20
2024-04-17T17:17:31.061Z,63.20
2024-04-17T17:19:58.501Z,63.20
2024-04-17T17:22:28.666Z,63.20
2024-04-17T17:27:34.859Z,63.20
2024-04-17T17:32:37.229Z,63.30
2024-04-17T17:35:05.786Z,63.20
2024-04-17T17:37:35.959Z,63.20
2024-04-17T17:40:06.203Z,63.20
2024-04-17T17:42:36.555Z,63.10
2024-04-17T17:47:45.008Z,63.10
2024-04-17T17:50:12.552Z,63.10
2024-04-17T17:52:42.645Z,63.20
2024-04-17T17:57:48.166Z,63.20
2024-04-17T18:00:16.011Z,63.20
2024-04-17T18:02:51.695Z,63.20
2024-04-17T18:05:18.972Z,63.20
2024-04-17T18:07:50.575Z,63.20
2024-04-17T18:10:18.041Z,63.30
2024-04-17T18:12:48.295Z,63.30
2024-04-17T18:15:19.588Z,63.30
2024-04-17T18:17:52.788Z,63.30
2024-04-17T18:20:24.228Z,63.30
2024-04-17T18:22:54.250Z,63.30
2024-04-17T18:25:24.402Z,63.30
2024-04-17T18:27:54.663Z,63.40
2024-04-17T18:30:22.278Z,63.30
2024-04-17T18:32:54.994Z,63.30
2024-04-17T18:35:22.552Z,63.30
2024-04-17T18:37:56.567Z,63.40
2024-04-17T18:40:24.913Z,63.30
2024-04-17T18:42:55.029Z,63.30
2024-04-17T18:45:23.020Z,63.40
2024-04-17T18:47:55.859Z,63.40
2024-04-17T18:50:23.308Z,63.40
2024-04-17T18:52:53.484Z,63.40
2024-04-17T18:55:21.059Z,63.40
2024-04-17T18:57:51.567Z,63.40
2024-04-17T19:00:19.175Z,63.40
2024-04-17T19:02:52.066Z,63.40
2024-04-17T19:05:23.339Z,64.00
2024-04-17T19:07:53.430Z,63.40
2024-04-17T19:10:21.510Z,63.40
2024-04-17T19:12:51.882Z,63.40
2024-04-17T19:15:19.437Z,63.50
2024-04-17T19:17:49.517Z,63.40
2024-04-17T19:20:17.192Z,63.40
2024-04-17T19:22:50.558Z,63.40
2024-04-17T19:25:17.988Z,63.40
2024-04-17T19:27:48.276Z,63.40
2024-04-17T19:30:15.781Z,63.40
2024-04-17T19:32:47.159Z,63.40
2024-04-17T19:35:14.682Z,63.50
2024-04-17T19:37:45.727Z,63.40
2024-04-17T19:40:15.940Z,63.50
2024-04-17T19:42:53.945Z,63.50
2024-04-17T19:45:25.694Z,63.50
2024-04-17T19:47:55.845Z,63.50
2024-04-17T19:50:23.191Z,63.50
2024-04-17T19:52:53.249Z,63.50
2024-04-17T19:55:25.107Z,63.50
2024-04-17T19:57:55.182Z,63.50
2024-04-17T20:00:22.593Z,63.40
2024-04-17T20:02:52.820Z,63.50
2024-04-17T20:05:20.327Z,63.50
2024-04-17T20:07:50.597Z,63.50
2024-04-17T20:10:19.038Z,63.50
2024-04-17T20:12:51.750Z,63.50
2024-04-17T20:15:19.878Z,63.50
2024-04-17T20:17:50.298Z,63.50
2024-04-17T20:20:26.011Z,63.50
2024-04-17T20:23:00.079Z,63.50
2024-04-17T20:25:27.399Z,63.50
2024-04-17T20:28:00.503Z,63.50
2024-04-17T20:30:27.834Z,63.50
2024-04-17T20:32:57.987Z,63.50
2024-04-17T20:35:25.444Z,63.60
2024-04-17T20:37:55.582Z,63.60
2024-04-17T20:40:24.748Z,63.60
2024-04-17T20:42:55.183Z,63.60
2024-04-17T20:45:26.522Z,63.60
2024-04-17T20:47:56.665Z,63.60
2024-04-17T20:50:24.092Z,63.60
2024-04-17T20:52:54.220Z,63.60
2024-04-17T20:55:21.709Z,64.20
2024-04-17T20:57:51.809Z,63.60
2024-04-17T21:00:19.397Z,63.60
2024-04-17T21:02:52.786Z,63.60
2024-04-17T21:05:20.208Z,63.60
2024-04-17T21:07:50.320Z,63.60
2024-04-17T21:10:17.956Z,63.70
2024-04-17T21:12:48.058Z,63.70
2024-04-17T21:15:16.161Z,63.60
2024-04-17T21:17:46.208Z,63.70
2024-04-17T21:20:20.749Z,63.70
2024-04-17T21:22:50.802Z,63.70
2024-04-17T21:25:18.070Z,63.70
2024-04-17T21:27:48.100Z,63.70
2024-04-17T21:30:15.777Z,63.70
2024-04-17T21:32:45.921Z,63.70
2024-04-17T21:35:16.126Z,63.70
2024-04-17T21:37:46.145Z,63.80
2024-04-17T21:40:14.377Z,63.70
2024-04-17T21:42:44.477Z,63.70
2024-04-17T21:45:18.239Z,63.80
2024-04-17T21:47:50.034Z,63.70
2024-04-17T21:50:20.361Z,63.80
2024-04-17T21:52:50.424Z,63.80
2024-04-17T21:55:18.005Z,63.80
2024-04-17T21:57:48.196Z,63.80
2024-04-17T22:00:16.071Z,63.80
2024-04-17T22:02:46.566Z,63.70
2024-04-17T22:05:14.070Z,63.80
2024-04-17T22:07:46.655Z,63.70
2024-04-17T22:10:14.083Z,63.80
2024-04-17T22:12:44.647Z,63.90
2024-04-17T22:15:12.222Z,63.90
2024-04-17T22:17:42.335Z,63.90
2024-04-17T22:20:09.951Z,63.90
2024-04-17T22:22:39.895Z,63.90
2024-04-17T22:25:09.915Z,63.90
2024-04-17T22:27:40.237Z,63.90
2024-04-17T22:30:09.300Z,63.90
2024-04-17T22:32:39.451Z,63.90
2024-04-17T22:35:07.032Z,63.90
2024-04-17T22:37:36.925Z,63.90
2024-04-17T22:40:04.799Z,63.90
2024-04-17T22:42:37.723Z,63.90
2024-04-17T22:45:05.972Z,63.90
2024-04-17T22:47:36.285Z,63.90
2024-04-17T22:50:03.918Z,63.90
2024-04-17T22:52:34.224Z,63.90
2024-04-17T22:55:01.705Z,63.90
2024-04-17T22:57:31.846Z,63.90
2024-04-17T23:00:01.844Z,63.90
2024-04-17T23:02:32.087Z,63.90
2024-04-17T23:04:59.385Z,63.90
2024-04-17T23:07:29.351Z,64.60
2024-04-17T23:09:56.897Z,63.90
2024-04-17T23:12:28.703Z,63.90
2024-04-17T23:14:56.412Z,63.90
2024-04-17T23:17:29.132Z,64.00
2024-04-17T23:19:56.542Z,64.00
2024-04-17T23:22:26.581Z,64.00
2024-04-17T23:24:53.918Z,64.00
2024-04-17T23:27:23.992Z,64.00
2024-04-17T23:29:51.365Z,64.00
2024-04-17T23:32:22.017Z,64.00
2024-04-17T23:34:52.000Z,64.00
2024-04-17T23:37:22.033Z,64.00
2024-04-17T23:39:50.748Z,64.00
2024-04-17T23:42:21.063Z,64.00
2024-04-17T23:44:48.564Z,64.00
2024-04-17T23:47:18.845Z,64.00
2024-04-17T23:49:46.276Z,64.10
2024-04-17T23:52:21.872Z,64.00
2024-04-17T23:54:49.311Z,64.10
2024-04-17T23:57:20.060Z,64.10
2024-04-17T23:59:47.616Z,64.10
